Big Bear Station Historical Data
Daily Summary for August 20, 2017 Units:  English    Metric   Both
« Previous Day
Next Day »
Daily Weekly Monthly Yearly Custom
  High: Low: Average:
Temperature: 77.7 °F 48.0 °F 61.8 °F
Dew Point: 48.5 °F 34.0 °F 41.7 °F
Humidity: 80 % 27 % 51 %
Wind Speed: 6.3 mph 0.0 mph 1.7 mph
Wind Gust: -999.0 mph - -
Wind:- - West
Pressure: 30.23 in 30.17 in -
Precipitation: 0.00 in    
Historical Graphs
 
 
Tabular Data for August 20, 2017
Time Temperature Dew Point Pressure Wind Wind Speed Wind Gust Humidity Rainfall Rate (Hourly)
00:11 54.3 °F 34.0 °F 30.22 in Calm   -999.0 mph 46 % 0 in
00:26 54.0 °F 34.7 °F 30.22 in South 1.7 mph -999.0 mph 48 % 0 in
00:42 53.8 °F 34.6 °F 30.22 in Calm   -999.0 mph 48 % 0 in
00:57 53.2 °F 35.5 °F 30.22 in Calm   -999.0 mph 51 % 0 in
01:12 52.9 °F 37.2 °F 30.22 in Calm   -999.0 mph 55 % 0 in
01:27 52.7 °F 37.9 °F 30.22 in Calm   -999.0 mph 57 % 0 in
01:42 52.3 °F 35.7 °F 30.22 in Calm   -999.0 mph 53 % 0 in
01:58 52.0 °F 35.4 °F 30.21 in Calm   -999.0 mph 53 % 0 in
02:13 51.8 °F 37.9 °F 30.21 in Calm   -999.0 mph 59 % 0 in
02:28 51.4 °F 38.4 °F 30.21 in Calm   -999.0 mph 61 % 0 in
02:43 51.3 °F 38.3 °F 30.20 in Calm   -999.0 mph 61 % 0 in
02:59 51.1 °F 38.5 °F 30.20 in Calm   -999.0 mph 62 % 0 in
03:14 50.9 °F 37.9 °F 30.20 in Calm   -999.0 mph 61 % 0 in
03:29 50.5 °F 39.2 °F 30.20 in Calm   -999.0 mph 65 % 0 in
03:44 50.2 °F 40.0 °F 30.20 in Calm   -999.0 mph 68 % 0 in
03:59 49.8 °F 39.7 °F 30.20 in Calm   -999.0 mph 68 % 0 in
04:15 49.6 °F 40.6 °F 30.19 in Calm   -999.0 mph 71 % 0 in
04:30 49.5 °F 41.2 °F 30.19 in Calm   -999.0 mph 73 % 0 in
04:45 49.3 °F 41.4 °F 30.20 in Calm   -999.0 mph 74 % 0 in
05:00 49.1 °F 40.8 °F 30.20 in Calm   -999.0 mph 73 % 0 in
05:15 48.9 °F 40.3 °F 30.20 in Calm   -999.0 mph 72 % 0 in
05:31 48.9 °F 40.6 °F 30.20 in Calm   -999.0 mph 73 % 0 in
05:46 48.6 °F 40.0 °F 30.20 in Calm   -999.0 mph 72 % 0 in
06:01 48.4 °F 39.8 °F 30.20 in Calm   -999.0 mph 72 % 0 in
06:16 48.2 °F 40.0 °F 30.20 in Calm   -999.0 mph 73 % 0 in
06:31 48.0 °F 39.4 °F 30.20 in Calm   -999.0 mph 72 % 0 in
06:47 48.4 °F 39.8 °F 30.20 in Calm   -999.0 mph 72 % 0 in
07:02 48.2 °F 40.3 °F 30.20 in Calm   -999.0 mph 74 % 0 in
07:17 48.4 °F 40.8 °F 30.21 in Calm   -999.0 mph 75 % 0 in
07:32 48.9 °F 41.7 °F 30.21 in Calm   -999.0 mph 76 % 0 in
07:47 49.8 °F 42.9 °F 30.21 in Calm   -999.0 mph 77 % 0 in
08:03 50.5 °F 44.2 °F 30.21 in Calm   -999.0 mph 79 % 0 in
08:18 52.0 °F 46.0 °F 30.21 in Calm   -999.0 mph 80 % 0 in
08:33 53.8 °F 46.1 °F 30.21 in Calm   -999.0 mph 75 % 0 in
08:48 57.0 °F 45.4 °F 30.21 in Calm   -999.0 mph 65 % 0 in
09:04 59.5 °F 42.4 °F 30.21 in NNW 1.1 mph -999.0 mph 53 % 0 in
09:19 63.3 °F 38.6 °F 30.21 in Calm   -999.0 mph 40 % 0 in
09:34 64.0 °F 38.5 °F 30.21 in Calm   -999.0 mph 39 % 0 in
09:49 64.6 °F 38.4 °F 30.22 in NW 3.2 mph -999.0 mph 38 % 0 in
10:04 65.5 °F 37.8 °F 30.22 in Calm   -999.0 mph 36 % 0 in
10:20 66.4 °F 37.9 °F 30.22 in West 5.8 mph -999.0 mph 35 % 0 in
10:35 68.0 °F 38.6 °F 30.22 in North 3.7 mph -999.0 mph 34 % 0 in
10:50 69.8 °F 38.6 °F 30.22 in NW 5.3 mph -999.0 mph 32 % 0 in
11:05 71.2 °F 39.0 °F 30.22 in NNW 3.7 mph -999.0 mph 31 % 0 in
11:21 72.5 °F 38.4 °F 30.22 in SSW 3.2 mph -999.0 mph 29 % 0 in
11:36 73.6 °F 39.4 °F 30.22 in SSE 5.3 mph -999.0 mph 29 % 0 in
11:51 74.7 °F 40.3 °F 30.22 in NW 4.7 mph -999.0 mph 29 % 0 in
12:07 75.0 °F 40.6 °F 30.21 in NNW 2.7 mph -999.0 mph 29 % 0 in
12:22 75.7 °F 41.2 °F 30.21 in NNW 5.8 mph -999.0 mph 29 % 0 in
12:37 75.4 °F 43.5 °F 30.21 in NW 5.8 mph -999.0 mph 32 % 0 in
12:53 76.5 °F 42.8 °F 30.21 in NW 6.3 mph -999.0 mph 30 % 0 in
13:08 75.7 °F 41.2 °F 30.21 in NW 4.7 mph -999.0 mph 29 % 0 in
13:24 76.6 °F 42.0 °F 30.21 in WNW 5.8 mph -999.0 mph 29 % 0 in
13:39 76.6 °F 42.9 °F 30.20 in ENE 3.7 mph -999.0 mph 30 % 0 in
13:54 77.7 °F 41.1 °F 30.20 in NW 5.8 mph -999.0 mph 27 % 0 in
14:10 75.9 °F 41.4 °F 30.20 in WNW 3.2 mph -999.0 mph 29 % 0 in
14:25 75.7 °F 42.1 °F 30.20 in NW 5.8 mph -999.0 mph 30 % 0 in
14:40 75.6 °F 41.1 °F 30.20 in NNW 4.7 mph -999.0 mph 29 % 0 in
14:55 76.3 °F 41.7 °F 30.19 in West 4.2 mph -999.0 mph 29 % 0 in
15:10 75.0 °F 42.3 °F 30.19 in West 6.3 mph -999.0 mph 31 % 0 in
15:26 74.8 °F 43.0 °F 30.19 in West 4.7 mph -999.0 mph 32 % 0 in
15:41 74.3 °F 44.1 °F 30.18 in NNW 4.7 mph -999.0 mph 34 % 0 in
15:56 74.3 °F 44.9 °F 30.18 in NW 4.7 mph -999.0 mph 35 % 0 in
16:12 73.0 °F 44.5 °F 30.18 in SW 4.2 mph -999.0 mph 36 % 0 in
16:27 73.2 °F 45.4 °F 30.18 in NW 3.2 mph -999.0 mph 37 % 0 in
16:42 73.8 °F 46.6 °F 30.17 in NNW 4.7 mph -999.0 mph 38 % 0 in
16:57 75.0 °F 47.0 °F 30.18 in WNW 4.7 mph -999.0 mph 37 % 0 in
17:13 76.6 °F 47.7 °F 30.18 in South 4.7 mph -999.0 mph 36 % 0 in
17:28 76.1 °F 47.9 °F 30.17 in WNW 2.7 mph -999.0 mph 37 % 0 in
17:43 75.4 °F 47.3 °F 30.18 in WNW 4.2 mph -999.0 mph 37 % 0 in
17:59 74.3 °F 47.1 °F 30.18 in East 4.7 mph -999.0 mph 38 % 0 in
18:14 75.9 °F 47.8 °F 30.17 in West 1.1 mph -999.0 mph 37 % 0 in
18:29 73.6 °F 47.8 °F 30.18 in NW 3.2 mph -999.0 mph 40 % 0 in
18:45 68.0 °F 47.6 °F 30.18 in WNW 2.2 mph -999.0 mph 48 % 0 in
19:00 65.7 °F 47.6 °F 30.18 in NNW 2.7 mph -999.0 mph 52 % 0 in
19:15 64.0 °F 48.5 °F 30.19 in Calm   -999.0 mph 57 % 0 in
19:30 62.8 °F 47.3 °F 30.19 in NNW 1.7 mph -999.0 mph 57 % 0 in
19:45 61.7 °F 47.2 °F 30.20 in West 1.1 mph -999.0 mph 59 % 0 in
20:01 61.0 °F 48.3 °F 30.20 in Calm   -999.0 mph 63 % 0 in
20:16 60.4 °F 46.9 °F 30.20 in Calm   -999.0 mph 61 % 0 in
20:31 59.5 °F 46.5 °F 30.20 in Calm   -999.0 mph 62 % 0 in
20:46 58.3 °F 46.2 °F 30.21 in Calm   -999.0 mph 64 % 0 in
21:01 57.9 °F 45.4 °F 30.21 in Calm   -999.0 mph 63 % 0 in
21:17 58.3 °F 44.5 °F 30.21 in Calm   -999.0 mph 60 % 0 in
21:32 58.8 °F 44.1 °F 30.22 in Calm   -999.0 mph 58 % 0 in
21:47 58.6 °F 43.9 °F 30.22 in Calm   -999.0 mph 58 % 0 in
22:02 58.6 °F 43.0 °F 30.22 in SE 2.7 mph -999.0 mph 56 % 0 in
22:17 58.1 °F 41.5 °F 30.23 in Calm   -999.0 mph 54 % 0 in
22:33 57.7 °F 40.2 °F 30.22 in Calm   -999.0 mph 52 % 0 in
22:48 57.7 °F 39.2 °F 30.23 in Calm   -999.0 mph 50 % 0 in
23:03 57.4 °F 37.9 °F 30.22 in Calm   -999.0 mph 48 % 0 in
23:18 57.4 °F 37.3 °F 30.23 in Calm   -999.0 mph 47 % 0 in
23:34 57.6 °F 36.4 °F 30.23 in Calm   -999.0 mph 45 % 0 in
23:49 57.0 °F 37.0 °F 30.23 in Calm   -999.0 mph 47 % 0 in
Big Bear CA Weather
Compliments of Weather Underground - 1.5 mb